Time;durP1;ratioP1;P1;durP2;ratioP2;P2;SDS_P1;SDS_P2;PMS_P1;PMS_P2;Temp;Humidity;BMP_temperature;BMP_pressure;BME280_temperature;BME280_humidity;BME280_pressure;Samples;Min_cycle;Max_cycle;Signal;HPM_P1;HPM_P2
2022/04/13 00:02:15;;;;;;;22.10;9.73;;;;;;;1.71;63.71;101396.59;1591714;89;27504;-75
2022/04/13 00:04:42;;;;;;;21.87;11.28;;;;;;;1.69;63.93;101397.19;1588578;89;25455;-74
2022/04/13 00:07:08;;;;;;;27.42;12.80;;;;;;;1.68;63.97;101391.52;1592183;89;25917;-75
2022/04/13 00:09:34;;;;;;;22.22;12.20;;;;;;;1.64;64.03;101390.91;1592083;89;26022;-75
2022/04/13 00:12:03;;;;;;;27.20;11.88;;;;;;;1.61;64.10;101391.59;1591787;89;25785;-75
2022/04/13 00:14:30;;;;;;;23.73;11.57;;;;;;;1.60;64.00;101384.64;1592631;88;27593;-75
2022/04/13 00:16:57;;;;;;;31.33;11.55;;;;;;;1.56;64.17;101391.95;1591199;89;26099;-74
2022/04/13 00:19:24;;;;;;;21.27;10.48;;;;;;;1.51;64.34;101394.91;1591496;89;26063;-75
2022/04/13 00:21:50;;;;;;;17.98;9.13;;;;;;;1.45;64.55;101387.41;1591854;89;26295;-75
2022/04/13 00:24:17;;;;;;;15.13;8.08;;;;;;;1.40;64.73;101395.30;1592360;88;25776;-75
2022/04/13 00:26:43;;;;;;;15.98;8.13;;;;;;;1.36;64.99;101401.75;1591943;89;28071;-75
2022/04/13 00:29:10;;;;;;;15.75;8.68;;;;;;;1.34;65.15;101404.51;1591782;89;25967;-75
2022/04/13 00:31:36;;;;;;;14.90;7.55;;;;;;;1.31;65.21;101402.53;1591649;89;25882;-75
2022/04/13 00:34:02;;;;;;;15.10;7.62;;;;;;;1.30;65.45;101399.08;1592077;88;26399;-75
2022/04/13 00:36:28;;;;;;;18.23;7.45;;;;;;;1.28;65.62;101402.27;1591312;89;25875;-75
2022/04/13 00:38:54;;;;;;;17.42;7.37;;;;;;;1.25;65.65;101401.19;1591847;89;27472;-75
2022/04/13 00:41:21;;;;;;;14.90;7.53;;;;;;;1.23;65.82;101408.38;1591967;89;25913;-74
2022/04/13 00:44:09;;;;;;;14.30;7.00;;;;;;;1.21;65.97;101405.00;1591554;88;25841;-75
2022/04/13 00:46:37;;;;;;;16.93;8.30;;;;;;;1.19;66.05;101406.91;1583261;89;25995;-75
2022/04/13 00:49:05;;;;;;;15.93;8.03;;;;;;;1.18;66.20;101409.63;1592000;89;26122;-75
2022/04/13 00:51:31;;;;;;;16.02;8.48;;;;;;;1.16;66.29;101406.25;1591890;89;28207;-75
2022/04/13 00:53:59;;;;;;;16.95;7.97;;;;;;;1.10;66.49;101407.53;1592107;88;25887;-75
2022/04/13 00:56:29;;;;;;;20.23;8.30;;;;;;;1.05;66.71;101407.00;1587020;89;25858;-75
2022/04/13 00:59:06;;;;;;;15.40;7.65;;;;;;;1.03;66.80;101409.37;1591612;89;25978;-75
2022/04/13 01:01:40;;;;;;;17.15;8.00;;;;;;;1.01;66.95;101414.77;1591880;89;25867;-75
2022/04/13 01:04:07;;;;;;;15.05;7.33;;;;;;;1.01;66.63;101418.72;1592153;88;27550;-75
2022/04/13 01:06:34;;;;;;;18.60;7.80;;;;;;;1.01;66.91;101419.19;1591203;89;25848;-75
2022/04/13 01:09:03;;;;;;;13.38;7.40;;;;;;;0.97;66.79;101415.92;1592504;89;25901;-75
2022/04/13 01:11:29;;;;;;;15.83;8.40;;;;;;;0.94;66.72;101412.17;1591155;89;26386;-75
2022/04/13 01:13:56;;;;;;;15.50;8.78;;;;;;;0.92;66.74;101418.52;1591747;88;25866;-75
2022/04/13 01:16:26;;;;;;;19.20;7.65;;;;;;;0.84;66.63;101419.50;1591133;89;28372;-75
2022/04/13 01:18:53;;;;;;;18.35;8.65;;;;;;;0.78;66.64;101418.98;1592458;89;25900;-75
2022/04/13 01:21:42;;;;;;;16.85;9.10;;;;;;;0.74;66.58;101416.19;1591801;89;25809;-75
2022/04/13 01:24:09;;;;;;;16.25;8.10;;;;;;;0.76;66.82;101416.08;1591669;88;25999;-75
2022/04/13 01:26:36;;;;;;;22.00;8.73;;;;;;;0.69;67.04;101414.80;1592181;89;25694;-75
2022/04/13 01:29:04;;;;;;;18.77;8.33;;;;;;;0.67;67.08;101418.02;1591201;89;27489;-75
2022/04/13 01:31:31;;;;;;;24.45;9.68;;;;;;;0.64;67.12;101415.11;1568754;89;25667;-75
2022/04/13 01:33:59;;;;;;;18.55;9.13;;;;;;;0.61;67.09;101415.80;1590836;88;26164;-75
2022/04/13 01:36:29;;;;;;;19.87;8.95;;;;;;;0.61;67.32;101428.52;1592375;89;25850;-74
2022/04/13 01:38:57;;;;;;;16.10;8.83;;;;;;;0.62;67.36;101423.59;1589705;89;25812;-75
2022/04/13 01:41:23;;;;;;;16.15;8.55;;;;;;;0.65;67.48;101427.36;1586310;89;28667;-75
2022/04/13 01:43:53;;;;;;;22.58;9.28;;;;;;;0.62;67.49;101420.95;1592186;88;25931;-75
2022/04/13 01:46:25;;;;;;;17.90;8.43;;;;;;;0.61;67.57;101425.88;1591775;89;25847;-75
2022/04/13 01:48:51;;;;;;;19.82;9.88;;;;;;;0.62;67.65;101430.69;1591439;89;25925;-75
2022/04/13 01:51:20;;;;;;;18.25;8.25;;;;;;;0.60;67.71;101432.55;1591781;89;26624;-75
2022/04/13 01:53:50;;;;;;;15.10;8.13;;;;;;;0.59;67.74;101431.73;1591006;88;27479;-75
2022/04/13 01:56:17;;;;;;;19.87;9.43;;;;;;;0.56;67.70;101427.11;1591694;89;25884;-75
2022/04/13 01:58:43;;;;;;;18.90;7.92;;;;;;;0.54;67.62;101421.95;1591760;89;26507;-75
2022/04/13 02:01:10;;;;;;;16.02;8.00;;;;;;;0.53;67.57;101422.06;1590923;89;26623;-75
2022/04/13 02:03:37;;;;;;;18.32;8.70;;;;;;;0.48;67.23;101421.52;1591436;88;26042;-75
2022/04/13 02:06:05;;;;;;;14.73;9.05;;;;;;;0.46;67.35;101422.95;1591686;89;27488;-75
2022/04/13 02:08:33;;;;;;;16.23;9.05;;;;;;;0.46;67.36;101422.09;1591420;89;26348;-75
2022/04/13 02:10:59;;;;;;;18.27;8.68;;;;;;;0.48;67.50;101426.79;1591794;89;25853;-75
2022/04/13 02:13:25;;;;;;;15.32;8.10;;;;;;;0.42;67.48;101427.20;1591959;88;25877;-75
2022/04/13 02:15:51;;;;;;;18.92;9.53;;;;;;;0.37;67.72;101438.51;1591855;89;25846;-75
2022/04/13 02:18:18;;;;;;;18.62;9.45;;;;;;;0.38;67.89;101448.13;1590710;89;27473;-75
2022/04/13 02:20:44;;;;;;;15.13;8.65;;;;;;;0.37;68.02;101453.00;1591546;89;25802;-75
2022/04/13 02:23:10;;;;;;;15.53;8.55;;;;;;;0.32;68.08;101453.80;1591726;88;25896;-75
2022/04/13 02:25:36;;;;;;;17.40;8.80;;;;;;;0.32;68.15;101454.63;1591576;89;25873;-75
2022/04/13 02:28:04;;;;;;;14.83;8.00;;;;;;;0.30;68.16;101455.69;1591162;89;26321;-75
2022/04/13 02:30:30;;;;;;;18.45;8.55;;;;;;;0.29;68.03;101453.98;1591604;89;28274;-75
2022/04/13 02:32:56;;;;;;;16.10;8.53;;;;;;;0.24;68.41;101449.02;1591243;88;25888;-75
2022/04/13 02:35:22;;;;;;;18.65;9.20;;;;;;;0.15;68.59;101454.05;1591361;89;26582;-75
2022/04/13 02:37:49;;;;;;;15.48;8.80;;;;;;;0.07;68.71;101451.91;1591764;89;25844;-75
2022/04/13 02:40:16;;;;;;;16.90;7.90;;;;;;;0.02;68.90;101448.74;1592102;89;25897;-75
2022/04/13 02:42:42;;;;;;;14.25;8.63;;;;;;;-0.04;68.98;101443.84;1591874;88;27482;-75
2022/04/13 02:45:09;;;;;;;17.10;8.68;;;;;;;-0.09;68.97;101438.90;1592422;89;25970;-75
2022/04/13 02:47:36;;;;;;;17.35;8.73;;;;;;;-0.08;69.08;101439.25;1591292;89;25828;-75
2022/04/13 02:50:06;;;;;;;18.75;9.33;;;;;;;-0.11;69.23;101442.07;1591515;89;25818;-75
2022/04/13 02:52:33;;;;;;;18.47;9.10;;;;;;;-0.11;69.31;101445.20;1584051;89;25953;-75
2022/04/13 02:55:00;;;;;;;19.40;9.23;;;;;;;-0.14;69.26;101444.92;1592481;88;27520;-75
2022/04/13 02:57:26;;;;;;;14.73;8.93;;;;;;;-0.17;69.19;101442.47;1591345;89;26447;-76
2022/04/13 02:59:53;;;;;;;17.60;9.50;;;;;;;-0.19;69.35;101439.55;1592219;88;25979;-75
2022/04/13 03:02:19;;;;;;;17.85;8.88;;;;;;;-0.19;69.26;101439.55;1595880;88;26514;-75
2022/04/13 03:04:47;;;;;;;14.87;7.87;;;;;;;-0.19;68.96;101436.92;1591510;88;25844;-75
2022/04/13 03:07:17;;;;;;;14.60;7.90;;;;;;;-0.19;69.32;101441.72;1592123;89;27696;-75
2022/04/13 03:09:44;;;;;;;17.00;8.68;;;;;;;-0.17;69.28;101439.84;1591718;89;25866;-75
2022/04/13 03:12:12;;;;;;;14.85;8.63;;;;;;;-0.16;69.45;101439.38;1584492;90;25772;-76
2022/04/13 03:14:43;;;;;;;15.25;8.05;;;;;;;-0.14;69.51;101439.66;1592285;88;25856;-75
2022/04/13 03:17:09;;;;;;;17.15;9.10;;;;;;;-0.14;69.44;101448.02;1584464;90;25839;-75
2022/04/13 03:19:35;;;;;;;16.65;8.53;;;;;;;-0.16;69.40;101449.44;1591478;89;27553;-75
2022/04/13 03:22:02;;;;;;;17.20;8.65;;;;;;;-0.19;69.44;101454.03;1591289;89;25855;-75
2022/04/13 03:24:28;;;;;;;15.13;8.93;;;;;;;-0.20;69.54;101451.05;1591818;88;25968;-75
2022/04/13 03:26:54;;;;;;;14.98;9.23;;;;;;;-0.21;69.41;101444.92;1598584;88;25917;-75
2022/04/13 03:29:20;;;;;;;18.57;8.70;;;;;;;-0.23;69.20;101448.13;1565881;91;25830;-76
2022/04/13 03:31:47;;;;;;;23.42;11.43;;;;;;;-0.23;69.08;101450.77;1584920;90;27739;-76
2022/04/13 03:34:13;;;;;;;20.32;10.23;;;;;;;-0.20;69.02;101442.69;1592706;88;26025;-75
2022/04/13 03:36:40;;;;;;;26.42;13.30;;;;;;;-0.20;68.84;101438.73;1592609;89;26109;-75
2022/04/13 03:39:07;;;;;;;24.75;13.60;;;;;;;-0.17;68.96;101449.05;1593406;89;25964;-75
2022/04/13 03:41:36;;;;;;;20.92;11.63;;;;;;;-0.13;68.89;101447.91;1593513;89;25774;-75
2022/04/13 03:44:05;;;;;;;25.65;12.73;;;;;;;-0.12;68.70;101452.25;1589170;88;28064;-75
2022/04/13 03:46:32;;;;;;;27.10;13.08;;;;;;;-0.11;68.76;101447.84;1592721;89;25910;-75
2022/04/13 03:48:59;;;;;;;26.85;13.05;;;;;;;-0.11;68.62;101446.02;1592595;89;25787;-75
2022/04/13 03:51:26;;;;;;;23.42;13.15;;;;;;;-0.11;68.55;101451.78;1593040;88;25933;-75
2022/04/13 03:53:53;;;;;;;27.15;14.15;;;;;;;-0.11;68.58;101447.34;1592347;88;26649;-75
2022/04/13 03:56:19;;;;;;;28.73;15.35;;;;;;;-0.12;68.56;101446.98;1592809;89;27461;-75
2022/04/13 03:58:45;;;;;;;28.87;15.30;;;;;;;-0.11;68.53;101457.05;1592640;88;26580;-75
2022/04/13 04:01:11;;;;;;;25.80;14.38;;;;;;;-0.12;68.62;101456.66;1593244;88;25883;-75
2022/04/13 04:03:38;;;;;;;26.55;14.85;;;;;;;-0.12;68.78;101456.66;1591821;88;25933;-76
2022/04/13 04:06:04;;;;;;;27.55;15.03;;;;;;;-0.13;68.91;101463.70;1593470;88;25800;-75
2022/04/13 04:08:35;;;;;;;27.20;14.35;;;;;;;-0.16;69.00;101462.61;1593937;89;27526;-76
2022/04/13 04:11:01;;;;;;;33.10;14.05;;;;;;;-0.16;69.13;101469.65;1593384;88;25715;-76
2022/04/13 04:13:28;;;;;;;22.90;12.25;;;;;;;-0.18;69.50;101480.75;1592879;88;25766;-76
2022/04/13 04:15:54;;;;;;;23.83;11.60;;;;;;;-0.22;69.61;101488.01;1593941;89;25919;-76
2022/04/13 04:18:20;;;;;;;21.27;10.72;;;;;;;-0.27;69.82;101486.12;1592917;89;26491;-76
2022/04/13 04:20:46;;;;;;;26.30;13.28;;;;;;;-0.32;69.96;101485.56;1592719;89;28258;-75
2022/04/13 04:23:14;;;;;;;25.80;13.15;;;;;;;-0.31;70.07;101480.69;1592320;88;25831;-76
2022/04/13 04:25:41;;;;;;;30.00;15.00;;;;;;;-0.30;70.26;101482.36;1592596;89;25815;-76
2022/04/13 04:28:10;;;;;;;31.68;17.57;;;;;;;-0.28;70.17;101486.23;1592467;88;26642;-76
2022/04/13 04:30:35;;;;;;;26.25;16.32;;;;;;;-0.22;70.47;101496.38;1595679;88;25925;-76
2022/04/13 04:33:01;;;;;;;33.88;19.85;;;;;;;-0.22;70.54;101493.28;1591364;88;27496;-76
2022/04/13 04:35:28;;;;;;;35.28;20.77;;;;;;;-0.19;70.66;101488.27;1592148;89;25874;-76
2022/04/13 04:37:54;;;;;;;43.05;21.95;;;;;;;-0.17;70.80;101487.23;1591693;89;25916;-76
2022/04/13 04:40:20;;;;;;;33.70;19.12;;;;;;;-0.14;70.91;101487.05;1591429;88;26308;-76
2022/04/13 04:42:48;;;;;;;34.43;18.52;;;;;;;-0.12;70.68;101478.58;1591967;88;26031;-76
2022/04/13 04:45:22;;;;;;;30.68;16.60;;;;;;;-0.08;70.50;101487.12;1598056;88;27668;-76
2022/04/13 04:47:50;;;;;;;25.75;16.00;;;;;;;-0.04;70.74;101483.34;1591759;89;25788;-76
2022/04/13 04:50:18;;;;;;;35.43;18.65;;;;;;;0.03;70.76;101480.70;1592428;89;25755;-76
2022/04/13 04:52:46;;;;;;;34.88;19.70;;;;;;;0.08;70.98;101483.05;1591617;88;26029;-76
2022/04/13 04:55:16;;;;;;;31.60;17.80;;;;;;;0.12;71.09;101477.48;1591830;89;26125;-75
2022/04/13 04:57:44;;;;;;;29.12;14.05;;;;;;;0.17;71.58;101481.96;1592824;89;28315;-76
2022/04/13 05:00:14;;;;;;;27.98;13.88;;;;;;;0.18;71.64;101484.13;1596002;88;25842;-76
2022/04/13 05:02:40;;;;;;;25.12;14.40;;;;;;;0.21;71.68;101481.31;1591615;89;26279;-76
2022/04/13 05:05:08;;;;;;;27.62;13.90;;;;;;;0.26;71.92;101481.37;1596910;88;25781;-76
2022/04/13 05:07:34;;;;;;;28.55;14.83;;;;;;;0.31;72.30;101481.94;1592271;89;25788;-75
2022/04/13 05:10:01;;;;;;;29.60;15.83;;;;;;;0.36;72.21;101489.54;1592149;89;28264;-75
2022/04/13 05:12:27;;;;;;;32.67;15.70;;;;;;;0.42;72.72;101486.50;1592833;89;26415;-76
2022/04/13 05:14:55;;;;;;;37.03;18.20;;;;;;;0.51;72.91;101492.49;1592866;88;25959;-76
2022/04/13 05:17:23;;;;;;;38.23;20.27;;;;;;;0.59;72.98;101492.36;1595818;88;25919;-76
2022/04/13 05:19:50;;;;;;;33.35;20.68;;;;;;;0.68;73.09;101491.73;1591763;89;25363;-75
2022/04/13 05:22:16;;;;;;;49.90;31.12;;;;;;;0.81;73.20;101493.56;1591646;89;27577;-76
2022/04/13 05:24:43;;;;;;;50.08;27.50;;;;;;;0.90;72.95;101495.09;1592266;88;25999;-76
2022/04/13 05:27:10;;;;;;;44.65;24.15;;;;;;;1.02;73.07;101492.11;1592293;89;26634;-76
2022/04/13 05:29:36;;;;;;;50.95;28.92;;;;;;;1.13;73.77;101495.73;1592041;89;26582;-76
2022/04/13 05:32:03;;;;;;;46.95;27.48;;;;;;;1.26;73.86;101497.05;1592048;89;25939;-76
2022/04/13 05:34:29;;;;;;;48.87;28.23;;;;;;;1.38;74.13;101497.50;1592166;88;28311;-76
2022/04/13 05:36:56;;;;;;;51.70;29.30;;;;;;;1.50;74.12;101494.00;1592455;89;25901;-76
2022/04/13 05:39:22;;;;;;;47.78;28.98;;;;;;;1.63;74.05;101500.58;1591270;89;25820;-75
2022/04/13 05:41:48;;;;;;;54.98;26.62;;;;;;;1.76;74.25;101508.87;1592161;89;26135;-76
2022/04/13 05:44:14;;;;;;;52.85;28.35;;;;;;;1.90;74.40;101507.43;1592417;88;26026;-76
2022/04/13 05:46:40;;;;;;;61.98;30.60;;;;;;;2.04;74.47;101511.23;1592405;89;28261;-76
2022/04/13 05:49:07;;;;;;;55.58;29.45;;;;;;;2.20;74.27;101513.12;1592730;89;26505;-76
2022/04/13 05:51:33;;;;;;;50.08;28.77;;;;;;;2.37;73.98;101510.60;1592479;88;26023;-76
2022/04/13 05:53:59;;;;;;;52.00;31.12;;;;;;;2.52;73.87;101502.02;1591150;88;26546;-76
2022/04/13 05:56:26;;;;;;;52.35;29.42;;;;;;;2.67;73.73;101507.49;1591081;89;26565;-76
2022/04/13 05:58:52;;;;;;;76.28;38.25;;;;;;;2.81;73.75;101508.14;1591656;89;28356;-76
2022/04/13 06:01:18;;;;;;;81.20;39.60;;;;;;;2.96;73.40;101505.67;1591975;89;25845;-76
2022/04/13 06:03:44;;;;;;;73.47;38.15;;;;;;;3.12;73.24;101502.71;1591894;88;25893;-76
2022/04/13 06:06:11;;;;;;;69.87;35.90;;;;;;;3.29;73.12;101515.50;1592399;89;26540;-76
2022/04/13 06:08:37;;;;;;;58.98;31.93;;;;;;;3.46;72.91;101516.37;1593969;88;25821;-76
2022/04/13 06:11:03;;;;;;;57.80;32.60;;;;;;;3.63;73.04;101510.59;1598249;88;27473;-77
2022/04/13 06:13:31;;;;;;;56.60;32.20;;;;;;;3.81;72.60;101515.76;1593303;88;25935;-76
2022/04/13 06:15:57;;;;;;;51.40;30.60;;;;;;;4.00;72.68;101527.06;1595371;88;25835;-76
2022/04/13 06:18:23;;;;;;;47.35;28.02;;;;;;;4.15;72.90;101525.02;1591843;89;26534;-77
2022/04/13 06:20:50;;;;;;;50.48;28.67;;;;;;;4.31;71.83;101536.91;1591722;89;25330;-77
2022/04/13 06:23:18;;;;;;;51.42;29.25;;;;;;;4.48;71.45;101532.89;1592050;88;27494;-76
2022/04/13 06:25:44;;;;;;;46.50;27.77;;;;;;;4.65;71.15;101534.52;1591545;89;25786;-77
2022/04/13 06:28:11;;;;;;;53.87;27.62;;;;;;;4.82;70.78;101531.80;1591255;89;25283;-76
2022/04/13 06:30:37;;;;;;;45.35;25.97;;;;;;;4.99;70.32;101535.70;1591120;89;25922;-76
2022/04/13 06:33:04;;;;;;;45.88;26.87;;;;;;;5.16;69.85;101543.09;1592511;88;25937;-76
2022/04/13 06:35:30;;;;;;;46.68;27.37;;;;;;;5.32;69.85;101542.98;1592398;89;27544;-76
2022/04/13 06:37:56;;;;;;;42.73;26.62;;;;;;;5.48;69.48;101547.84;1589356;89;25850;-76
2022/04/13 06:40:22;;;;;;;50.78;26.82;;;;;;;5.63;68.84;101551.00;1597415;88;25716;-76
2022/04/13 06:42:49;;;;;;;47.75;27.05;;;;;;;5.74;68.43;101548.27;1584422;89;25866;-78
2022/04/13 06:45:15;;;;;;;41.40;24.70;;;;;;;5.85;68.23;101554.39;1584773;90;25812;-77
2022/04/13 06:47:42;;;;;;;43.15;26.48;;;;;;;5.98;67.73;101555.01;1571929;89;27574;-77
2022/04/13 06:50:10;;;;;;;45.78;25.55;;;;;;;6.07;67.39;101555.50;1591935;89;26213;-76
2022/04/13 06:52:38;;;;;;;39.10;24.07;;;;;;;6.18;67.19;101558.55;1570529;90;25854;-76
2022/04/13 06:55:09;;;;;;;43.68;23.90;;;;;;;6.29;66.58;101557.63;1591185;88;25876;-76
2022/04/13 06:57:37;;;;;;;35.33;20.35;;;;;;;6.39;66.31;101570.47;1591713;89;25982;-76
2022/04/13 07:00:07;;;;;;;33.35;20.08;;;;;;;6.49;65.80;101570.84;1591954;89;27526;-76
2022/04/13 07:02:35;;;;;;;33.85;20.05;;;;;;;6.61;65.67;101563.08;1591695;89;25784;-75
2022/04/13 07:05:03;;;;;;;34.92;20.82;;;;;;;6.76;65.35;101563.51;1592064;88;25929;-76
2022/04/13 07:07:31;;;;;;;30.75;19.90;;;;;;;6.89;65.36;101562.27;1589928;88;26310;-76
2022/04/13 07:09:57;;;;;;;29.75;18.12;;;;;;;7.04;65.26;101561.35;1605019;88;25898;-75
2022/04/13 07:12:24;;;;;;;28.45;16.73;;;;;;;7.18;64.13;101559.61;1600813;88;27498;-75
2022/04/13 07:14:50;;;;;;;25.32;16.23;;;;;;;7.31;63.61;101564.16;1594023;88;25794;-75
2022/04/13 07:17:17;;;;;;;32.00;17.92;;;;;;;7.45;63.36;101565.52;1592864;88;25853;-75
2022/04/13 07:19:43;;;;;;;28.77;17.95;;;;;;;7.55;62.95;101565.00;1603207;88;26009;-75
2022/04/13 07:22:09;;;;;;;26.87;17.00;;;;;;;7.63;62.39;101567.81;1574565;89;25971;-75
2022/04/13 07:24:35;;;;;;;25.90;15.40;;;;;;;7.72;62.15;101573.10;1584789;89;27502;-75
2022/04/13 07:27:02;;;;;;;27.67;15.08;;;;;;;7.85;60.71;101570.11;1594530;88;25836;-75
2022/04/13 07:29:28;;;;;;;21.48;14.07;;;;;;;7.92;60.04;101567.22;1598717;88;26488;-75
2022/04/13 07:31:56;;;;;;;23.57;14.25;;;;;;;8.01;60.44;101565.50;1591887;89;26454;-75
2022/04/13 07:34:23;;;;;;;20.68;13.95;;;;;;;8.11;60.01;101569.81;1582327;89;26079;-76
2022/04/13 07:36:49;;;;;;;24.77;14.47;;;;;;;8.23;59.56;101571.28;1592272;89;27480;-76
2022/04/13 07:39:15;;;;;;;24.10;15.53;;;;;;;8.32;59.06;101577.59;1591883;89;26723;-76
2022/04/13 07:41:41;;;;;;;26.42;16.55;;;;;;;8.40;58.84;101575.86;1592205;89;25999;-76
2022/04/13 07:44:08;;;;;;;30.12;17.07;;;;;;;8.52;59.14;101572.02;1592490;88;25922;-76
2022/04/13 07:46:34;;;;;;;30.50;19.27;;;;;;;8.65;58.97;101574.81;1592402;89;25856;-75
2022/04/13 07:49:01;;;;;;;27.17;16.05;;;;;;;8.78;58.83;101568.13;1591711;89;27628;-75
2022/04/13 07:51:28;;;;;;;29.15;15.13;;;;;;;8.91;58.54;101570.42;1591976;89;26034;-76
2022/04/13 07:53:54;;;;;;;24.05;15.23;;;;;;;9.02;58.22;101568.37;1590856;88;25868;-75
2022/04/13 07:56:20;;;;;;;24.98;15.45;;;;;;;9.16;57.35;101572.31;1592443;88;26572;-75
2022/04/13 07:58:46;;;;;;;28.30;15.70;;;;;;;9.24;57.64;101567.88;1592991;89;25983;-76
2022/04/13 08:01:14;;;;;;;30.65;17.65;;;;;;;9.35;57.27;101565.45;1591555;89;27467;-76
2022/04/13 08:03:40;;;;;;;27.87;16.45;;;;;;;9.45;56.99;101564.88;1592053;88;26612;-76
2022/04/13 08:06:07;;;;;;;26.82;17.20;;;;;;;9.53;56.87;101566.27;1591667;89;26785;-75
2022/04/13 08:08:33;;;;;;;29.90;18.20;;;;;;;9.67;56.72;101565.69;1592555;89;26117;-76
2022/04/13 08:10:59;;;;;;;32.42;17.05;;;;;;;9.77;55.85;101565.59;1591746;89;25797;-75
2022/04/13 08:13:25;;;;;;;32.93;18.62;;;;;;;9.88;56.61;101563.47;1592393;88;27490;-75
2022/04/13 08:15:52;;;;;;;27.02;15.68;;;;;;;9.97;56.79;101563.86;1591433;89;26130;-76
2022/04/13 08:18:18;;;;;;;27.17;17.07;;;;;;;10.08;55.65;101565.42;1591866;89;26065;-76
2022/04/13 08:20:45;;;;;;;25.68;14.63;;;;;;;10.16;55.79;101561.47;1592590;89;26008;-76
2022/04/13 08:23:11;;;;;;;24.02;14.35;;;;;;;10.29;54.03;101561.86;1591172;88;25954;-76
2022/04/13 08:25:37;;;;;;;25.45;15.43;;;;;;;10.41;53.60;101563.27;1591737;89;27496;-76
2022/04/13 08:28:04;;;;;;;22.07;13.93;;;;;;;10.49;54.28;101562.44;1592250;89;25834;-75
2022/04/13 08:30:30;;;;;;;26.05;14.65;;;;;;;10.58;54.67;101558.30;1592648;89;26112;-77
2022/04/13 08:32:56;;;;;;;23.95;13.80;;;;;;;10.72;54.40;101559.48;1592681;88;25953;-76
2022/04/13 08:35:23;;;;;;;23.75;14.00;;;;;;;10.83;53.43;101556.49;1592663;89;26047;-76
2022/04/13 08:37:49;;;;;;;24.15;13.70;;;;;;;10.93;52.57;101559.84;1592933;88;27546;-76
2022/04/13 08:40:17;;;;;;;21.62;13.43;;;;;;;10.97;52.52;101559.85;1592614;89;25783;-76
2022/04/13 08:42:53;;;;;;;25.65;14.80;;;;;;;11.06;52.38;101549.97;1592641;88;25903;-76
2022/04/13 08:45:26;;;;;;;23.02;14.05;;;;;;;11.11;52.28;101544.46;1589227;89;26851;-76
2022/04/13 08:47:56;;;;;;;18.90;11.40;;;;;;;11.23;52.06;101550.31;1592723;89;25779;-76
2022/04/13 08:50:29;;;;;;;19.05;10.05;;;;;;;11.29;50.92;101542.96;1599037;88;27663;-76
2022/04/13 08:53:04;;;;;;;16.60;10.32;;;;;;;11.34;51.78;101533.39;1600946;88;25905;-76
2022/04/13 08:55:32;;;;;;;18.70;10.20;;;;;;;11.38;50.52;101538.75;1602417;88;25740;-75
2022/04/13 08:58:13;;;;;;;17.65;9.38;;;;;;;11.46;50.44;101538.73;1604342;88;25847;-76
2022/04/13 09:00:45;;;;;;;12.93;7.70;;;;;;;11.57;49.61;101536.20;1599467;88;25806;-76
2022/04/13 09:03:43;;;;;;;14.50;7.05;;;;;;;11.67;49.47;101545.45;1607987;87;27474;-76
2022/04/13 09:06:11;;;;;;;12.40;6.75;;;;;;;11.78;46.77;101541.07;1596711;88;25902;-76
2022/04/13 09:09:02;;;;;;;33.30;12.18;;;;;;;11.83;46.83;101540.88;1614446;88;25729;-76
2022/04/13 09:11:28;;;;;;;;;;;;;;;11.88;47.01;101535.84;1605252;88;25864;-76
2022/04/13 09:13:55;;;;;;;15.43;8.35;;;;;;;11.98;46.96;101524.88;1592418;88;25793;-76
2022/04/13 09:16:22;;;;;;;14.25;7.30;;;;;;;12.04;46.28;101526.38;1586021;90;28294;-76
2022/04/13 09:18:48;;;;;;;15.35;9.78;;;;;;;12.17;47.63;101530.69;1592512;89;26402;-76
2022/04/13 09:21:20;;;;;;;12.88;8.08;;;;;;;12.31;47.09;101534.00;1592640;89;25884;-76
2022/04/13 09:23:46;;;;;;;17.40;8.30;;;;;;;12.44;46.99;101537.95;1592331;88;25845;-76
2022/04/13 09:26:18;;;;;;;12.55;6.47;;;;;;;12.52;45.51;101532.03;1592650;89;26026;-76
2022/04/13 09:28:43;;;;;;;14.00;6.42;;;;;;;12.55;45.38;101524.13;1591978;89;27455;-76
2022/04/13 09:31:09;;;;;;;14.10;7.12;;;;;;;12.56;45.58;101528.47;1592813;89;25887;-76
2022/04/13 09:33:35;;;;;;;11.12;6.65;;;;;;;12.64;45.01;101538.67;1592375;88;25856;-76
2022/04/13 09:36:02;;;;;;;12.63;6.67;;;;;;;12.70;45.26;101527.73;1592509;89;26631;-76
2022/04/13 09:38:28;;;;;;;14.03;6.72;;;;;;;12.76;44.29;101527.02;1592758;89;25915;-76
2022/04/13 09:41:03;;;;;;;13.38;6.10;;;;;;;12.77;42.30;101516.07;1592527;89;28452;-76
2022/04/13 09:43:29;;;;;;;9.35;5.45;;;;;;;12.81;43.47;101509.32;1588163;88;25885;-76
2022/04/13 09:45:57;;;;;;;8.60;5.95;;;;;;;12.92;43.32;101508.06;1592825;89;25314;-76
2022/04/13 09:48:24;;;;;;;13.50;6.10;;;;;;;13.00;43.16;101499.42;1591599;89;26304;-77
2022/04/13 09:50:52;;;;;;;9.10;5.35;;;;;;;13.06;43.10;101494.72;1591732;89;26120;-76
2022/04/13 09:53:20;;;;;;;11.35;6.80;;;;;;;13.13;42.97;101497.50;1591838;88;27080;-76
2022/04/13 09:56:01;;;;;;;9.65;5.95;;;;;;;13.19;42.35;101486.03;1592704;89;25940;-76
2022/04/13 09:58:30;;;;;;;9.30;6.05;;;;;;;13.25;42.47;101493.38;1592697;89;25837;-76
2022/04/13 10:01:02;;;;;;;11.45;6.10;;;;;;;13.33;43.02;101483.02;1592910;89;25809;-76
2022/04/13 10:03:29;;;;;;;12.90;6.90;;;;;;;13.42;41.19;101472.02;1591407;88;44425;-76
2022/04/13 10:05:58;;;;;;;9.40;6.08;;;;;;;13.49;40.68;101475.64;1592375;89;27575;-76
2022/04/13 10:08:28;;;;;;;10.08;5.50;;;;;;;13.57;40.47;101482.28;1586684;89;25804;-76
2022/04/13 10:11:00;;;;;;;8.65;5.17;;;;;;;13.66;40.04;101476.30;1592862;89;25356;-76
2022/04/13 10:13:40;;;;;;;10.08;5.47;;;;;;;13.75;40.20;101477.89;1591205;88;25917;-76
2022/04/13 10:16:11;;;;;;;10.38;5.83;;;;;;;13.76;39.64;101472.30;1591459;89;31903;-76
2022/04/13 10:18:57;;;;;;;9.35;5.67;;;;;;;13.77;39.82;101480.69;1591628;89;26901;-76
2022/04/13 10:21:45;;;;;;;9.43;5.75;;;;;;;13.79;40.45;101485.91;1581258;89;26514;-76
2022/04/13 10:24:26;;;;;;;;;;;;;;;13.82;40.48;101487.71;1593669;88;25872;-76
2022/04/13 10:27:06;;;;;;;10.93;6.62;;;;;;;13.89;40.63;101485.11;1592222;89;26560;-76
2022/04/13 10:29:35;;;;;;;11.93;5.50;;;;;;;13.98;40.76;101482.65;1586666;89;25954;-76
2022/04/13 10:32:08;;;;;;;8.58;6.25;;;;;;;14.01;41.13;101483.60;1591602;89;28312;-76
2022/04/13 10:34:41;;;;;;;10.93;6.78;;;;;;;14.08;40.13;101482.34;1591427;88;25389;-76
2022/04/13 10:37:11;;;;;;;11.00;7.00;;;;;;;14.07;39.19;101477.45;1591377;89;25874;-76
2022/04/13 10:39:38;;;;;;;13.80;6.33;;;;;;;14.06;39.11;101466.88;1591080;89;26777;-76
2022/04/13 10:42:07;;;;;;;16.62;9.85;;;;;;;14.09;40.03;101478.14;1591736;89;25795;-76
2022/04/13 10:44:41;;;;;;;9.45;6.78;;;;;;;14.22;39.64;101475.58;1592262;88;27469;-76
2022/04/13 10:47:11;;;;;;;10.88;5.35;;;;;;;14.30;39.06;101471.98;1585204;90;26053;-76
2022/04/13 10:49:56;;;;;;;8.58;5.45;;;;;;;14.34;38.45;101469.23;1591574;89;25818;-76
2022/04/13 10:52:58;;;;;;;11.97;6.80;;;;;;;14.30;38.67;101463.39;1560434;91;27045;-76
2022/04/13 10:55:27;;;;;;;;;;;;;;;14.29;38.66;101467.60;1594442;89;25712;-76
2022/04/13 10:58:17;;;;;;;16.25;9.68;;;;;;;14.35;37.34;101476.30;1592132;89;27616;-76
2022/04/13 11:00:46;;;;;;;13.00;7.72;;;;;;;14.38;37.36;101470.52;1590953;89;26270;-76
2022/04/13 11:03:12;;;;;;;10.55;6.50;;;;;;;14.37;38.53;101467.52;1586755;88;25797;-76
2022/04/13 11:05:42;;;;;;;10.25;6.58;;;;;;;14.44;39.32;101465.20;1592477;89;25985;-76
2022/04/13 11:08:25;;;;;;;10.30;7.00;;;;;;;14.53;39.42;101465.41;1592502;89;26113;-76
2022/04/13 11:10:53;;;;;;;12.20;7.50;;;;;;;14.55;38.27;101468.74;1592215;89;27517;-76
2022/04/13 11:13:20;;;;;;;22.93;13.58;;;;;;;14.53;38.66;101464.56;1590551;88;25834;-76
2022/04/13 11:15:49;;;;;;;12.58;8.15;;;;;;;14.54;38.52;101459.51;1591814;89;25926;-76
2022/04/13 11:18:20;;;;;;;12.03;7.62;;;;;;;14.56;38.40;101456.11;1592060;89;26637;-76
2022/04/13 11:21:06;;;;;;;11.18;7.12;;;;;;;14.58;38.03;101455.40;1591567;89;25795;-76
2022/04/13 11:23:50;;;;;;;29.75;10.78;;;;;;;14.64;38.92;101456.81;1577823;88;28424;-76
2022/04/13 11:26:36;;;;;;;11.25;6.80;;;;;;;14.75;38.64;101449.23;1590494;89;25363;-76